SKLO2: Skiatook Lake

Data processed at Tue Sep 01 23:01:48 2015 Central Daylight Time


All information presented herein is the property of the government of the United States of America and may be revised or deleted at any time without prior notice.
Dissemination of this information without the expressed written consent of the Public Affairs Office, Tulsa District U.S. Army Corps of Engineers is strictly prohibited.
These data are gathered electronically and, as presented, have not undergone any form of quality control. These data are not guaranteed to be valid or correct.
Go to home page.
Go to station list.
Go to station map.

Upstream stations:

Downstream station: Previous Day
Next Day
Current Day

Display graphics.
Display DCP transmissions.


    
    SHEF ID:       SKLO2     Skiatook Lake
    STATION TYPE:  RESERVOIR
    Flood Control Pool:  Bottom =  714.00, Top =  729.00
    
                   PRECIP ELEVATION   STORAGE    INFLOW   RELEASE  AIR-TEMP  WIND-DIRWIND-SPEED REL-HUMID SOLAR-RAD   VOLTAGE  BAT-LOAD
                   INCHES      FEET      ACFT       CFS       CFS     DEG-F   DEGREES       MPH   PERCENT      W/M2     VOLTS     VOLTS
                     GOES      GOES      GOES  COMPRESQ  COMPRESQ      GOES      GOES      GOES      GOES      GOES      GOES      GOES
       (Cen)
    09/01 01:00      0.00    713.61    317532         4         0     74.79      7.62      2.68     82.92      0.00     12.97     12.65
    09/01 02:00      0.00    713.61    317532         4       102     77.45    150.87      3.12     76.03      0.00     12.96     12.65
    09/01 03:00      0.00    713.60    317433         4       102     76.75    143.23      3.41     75.77      0.00     12.94     12.65
    09/01 04:00      0.00    713.60    317433         4       102     72.43     42.52      3.79     87.80      0.00     12.93     12.65
    09/01 05:00      0.00    713.61    317532         4       102     71.82     38.11      2.65     88.90      0.00     12.91     12.65
    09/01 06:00      0.00    713.60    317433         4       102     70.93     29.48      2.94     88.98      0.00     12.89     12.57
    09/01 07:00      0.00    713.59    317334         4       102     71.40     50.49      2.19     86.39      0.00     12.87     12.57
    09/01 08:00      0.00    713.60    317433         4       102     69.49     24.18      3.04     89.56     45.94     13.06     12.57
    09/01 09:00      0.00    713.59    317334         4         0     73.04     58.11      2.18     82.52    237.34     13.65     12.73
    09/01 10:00      0.00    713.59    317334         4       102     77.11    170.45      4.04     72.99    455.84     13.46     13.29
    09/01 11:00      0.00    713.61    317532         4       102     80.20    165.70      5.95     67.33    650.70     13.46     13.29
    09/01 12:00      0.00    713.60    317433         4       102     82.90    172.69      6.90     61.99    800.82     13.56     13.68
    09/01 13:00      0.00    713.60    317433         4       102     85.06    168.71      7.58     58.92    899.85     13.48     12.97
    09/01 14:00      0.00    713.59    317334         4       102     86.32    178.83      9.05     57.21    884.11     13.48     13.60
    09/01 15:00      0.00    713.59    317334         4       102     87.28    178.35     11.23     53.98    840.23     13.52     13.84
    09/01 16:00      0.00    713.59    317334         4       102     88.23    176.78     10.71     50.95    765.63     13.65     13.37
    09/01 17:00      0.00    713.57    317135         4       102     88.56    172.94     10.05     51.39    571.97     13.76     13.13
    09/01 18:00      0.00    713.58    317235         4       102     88.41    175.43      9.45     53.30    384.87     13.60     13.68
    09/01 19:00      0.00    713.58    317235         4       102     87.85    173.71      7.59     54.02    198.34     13.58     13.21
    09/01 20:00      0.00    713.61    317532         4       102     86.02    173.89      5.47     56.80     25.27     13.09     13.13
    09/01 21:00      0.00    713.56    317036         4       102     83.86    149.31      5.20     58.85      0.00     13.04     12.73
    09/01 22:00      0.00    713.57    317135         4       102     82.15    127.95      4.27     63.06      0.00     13.02     12.73
    09/01 23:00      0.00    713.57    317135      ----      ----     79.36     92.27      3.40     71.56      0.00     13.00     12.65
    09/02 00:00      ----      ----      ----      ----      ----      ----      ----      ----      ----      ----      ----      ----